METAR Data
IDs: Format: Raw Decoded Include TAF

Data at: 0726 UTC 22 Oct 2021

METAR for:KAUN (Auburn Muni, CA, US)
Text:KAUN 220715Z AUTO 00000KT 10SM OVC004 16/15 A3003 RMK A01
Temperature: 16.0°C ( 61°F)
Dewpoint: 15.0°C ( 59°F) [RH = 94%]
Pressure (altimeter):30.03 inches Hg (1017.0 mb)
Winds:calm
Visibility:10 or more sm (16+ km)
Ceiling:400 feet AGL
Clouds: overcast cloud deck at 400 feet AGL
QC Flag:automated observation with no human augmentation